Yucca Valley, California
Current Conditions -  °F | °C
As of 5:56 PM on Sunday 25 Jan 2015 (Local Time) from KNXP Reporting Station
Clear Clear  
Wind Chill: 63°   Ceiling: Unl
Heat Index: 63°   Visibility: 9mi
Dew Point: 29°   Wind: 8mph
Humidity: 28%   Direction: 300°WNW
Pressure: 30.16"   Gusts: NA
Location:  34.12°N, 116.41°W
Report Text: KNXP 260156Z AUTO 30007KT 9SM CLR 17/M02 A3016 RMK AO2 SLP194 T01721017 $
Loading
Personal Weather Stations






























Interactive Weather Map New forecast layout! Learn more

10-Day Weather Forecast

Advertisements
Track Severe Weather on mobile